createdAt,value
2018-12-16T00:00:29.575Z,79.58
2018-12-16T00:03:00.514Z,79.85
2018-12-16T00:05:31.180Z,79.69
2018-12-16T00:08:01.411Z,79.62
2018-12-16T00:10:31.497Z,79.77
2018-12-16T00:13:01.622Z,80.42
2018-12-16T00:15:31.894Z,80.45
2018-12-16T00:18:02.778Z,79.89
2018-12-16T00:20:34.156Z,79.92
2018-12-16T00:23:04.766Z,79.86
2018-12-16T00:25:35.512Z,79.75
2018-12-16T00:28:06.506Z,80.00
2018-12-16T00:30:36.812Z,79.83
2018-12-16T00:33:08.012Z,79.75
2018-12-16T00:35:37.987Z,80.15
2018-12-16T00:38:08.466Z,79.46
2018-12-16T00:40:38.543Z,79.99
2018-12-16T00:43:08.835Z,79.91
2018-12-16T00:45:38.857Z,79.84
2018-12-16T00:48:10.373Z,79.61
2018-12-16T00:50:40.440Z,79.53
2018-12-16T00:53:11.500Z,79.86
2018-12-16T00:55:41.590Z,79.92
2018-12-16T00:58:12.298Z,80.07
2018-12-16T01:00:42.481Z,79.83
2018-12-16T01:03:13.070Z,80.06
2018-12-16T01:05:44.134Z,79.77
2018-12-16T01:08:15.143Z,80.33
2018-12-16T01:10:45.191Z,80.61
2018-12-16T01:13:15.492Z,80.33
2018-12-16T01:15:45.606Z,80.35
2018-12-16T01:18:15.802Z,80.26
2018-12-16T01:20:45.892Z,81.09
2018-12-16T01:23:16.325Z,80.99
2018-12-16T01:25:46.409Z,81.91
2018-12-16T01:28:16.611Z,81.73
2018-12-16T01:30:47.456Z,81.82
2018-12-16T01:33:17.652Z,81.94
2018-12-16T01:35:48.711Z,82.09
2018-12-16T01:38:19.405Z,82.60
2018-12-16T01:40:51.020Z,83.00
2018-12-16T01:43:21.114Z,82.72
2018-12-16T01:45:51.326Z,82.93
2018-12-16T01:48:21.319Z,83.59
2018-12-16T01:50:51.907Z,83.12
2018-12-16T01:53:22.190Z,83.73
2018-12-16T01:55:52.268Z,83.46
2018-12-16T01:58:23.456Z,83.54
2018-12-16T02:00:54.469Z,83.34
2018-12-16T02:03:24.627Z,83.57
2018-12-16T02:05:54.738Z,83.80
2018-12-16T02:08:26.217Z,83.95
2018-12-16T02:10:56.453Z,84.27
2018-12-16T02:13:26.554Z,84.41
2018-12-16T02:15:56.645Z,84.03
2018-12-16T02:18:27.347Z,84.32
2018-12-16T02:20:57.810Z,83.92
2018-12-16T02:23:28.028Z,84.47
2018-12-16T02:25:58.169Z,84.61
2018-12-16T02:28:29.278Z,84.09
2018-12-16T02:30:59.304Z,84.30
2018-12-16T02:33:30.771Z,84.64
2018-12-16T02:36:00.910Z,84.42
2018-12-16T02:38:32.147Z,84.09
2018-12-16T02:41:02.279Z,84.47
2018-12-16T02:43:32.434Z,83.67
2018-12-16T02:46:02.928Z,83.93
2018-12-16T02:48:33.757Z,83.73
2018-12-16T02:51:03.703Z,83.60
2018-12-16T02:53:33.709Z,83.88
2018-12-16T02:56:04.604Z,83.91
2018-12-16T02:58:34.749Z,83.22
2018-12-16T03:01:05.002Z,82.77
2018-12-16T03:03:35.091Z,83.00
2018-12-16T03:06:05.250Z,83.26
2018-12-16T03:08:35.432Z,83.11
2018-12-16T03:11:05.567Z,82.41
2018-12-16T03:13:35.541Z,82.59
2018-12-16T03:16:05.763Z,82.66
2018-12-16T03:18:35.999Z,82.95
2018-12-16T03:21:07.169Z,82.47
2018-12-16T03:23:37.301Z,82.27
2018-12-16T03:26:07.451Z,82.80
2018-12-16T03:28:38.654Z,82.84
2018-12-16T03:31:08.716Z,82.61
2018-12-16T03:33:38.913Z,82.84
2018-12-16T03:36:08.995Z,82.28
2018-12-16T03:38:39.163Z,82.74
2018-12-16T03:41:10.147Z,82.21
2018-12-16T03:43:40.718Z,82.59
2018-12-16T03:46:11.418Z,82.08
2018-12-16T03:48:41.647Z,82.95
2018-12-16T03:51:11.636Z,82.77
2018-12-16T03:53:42.607Z,83.10
2018-12-16T03:56:14.172Z,83.13
2018-12-16T03:59:01.155Z,82.95
2018-12-16T04:01:31.894Z,82.89
2018-12-16T04:04:03.057Z,82.97
2018-12-16T04:06:33.142Z,83.21
2018-12-16T04:09:03.666Z,83.55
2018-12-16T04:11:33.723Z,83.65
2018-12-16T04:14:04.047Z,83.61
2018-12-16T04:16:34.263Z,83.51
2018-12-16T04:19:04.516Z,83.65
2018-12-16T04:21:35.355Z,83.98
2018-12-16T04:24:06.507Z,83.37
2018-12-16T04:26:36.625Z,83.93
2018-12-16T04:29:07.243Z,83.36
2018-12-16T04:31:37.386Z,83.42
2018-12-16T04:34:07.494Z,83.95
2018-12-16T04:36:38.446Z,83.47
2018-12-16T04:39:09.161Z,83.58
2018-12-16T04:41:39.601Z,83.05
2018-12-16T04:44:09.731Z,83.43
2018-12-16T04:46:39.954Z,82.82
2018-12-16T04:49:10.791Z,82.80
2018-12-16T04:51:40.912Z,82.37
2018-12-16T04:54:11.015Z,82.91
2018-12-16T04:56:41.073Z,82.17
2018-12-16T04:59:12.335Z,81.89
2018-12-16T05:01:42.533Z,82.26
2018-12-16T05:04:12.798Z,82.36
2018-12-16T05:06:42.995Z,82.45
2018-12-16T05:09:12.987Z,82.16
2018-12-16T05:11:43.883Z,81.53
2018-12-16T05:14:14.185Z,81.74
2018-12-16T05:16:45.062Z,81.71
2018-12-16T05:19:15.387Z,82.08
2018-12-16T05:21:45.560Z,81.86
2018-12-16T05:24:15.917Z,82.16
2018-12-16T05:26:46.106Z,81.78
2018-12-16T05:29:16.317Z,82.17
2018-12-16T05:31:46.511Z,81.74
2018-12-16T05:34:16.581Z,82.37
2018-12-16T05:36:47.485Z,82.20
2018-12-16T05:39:17.536Z,81.66
2018-12-16T05:41:47.728Z,81.91
2018-12-16T05:44:18.342Z,81.03
2018-12-16T05:46:48.363Z,81.41
2018-12-16T05:49:18.524Z,81.44
2018-12-16T05:51:48.710Z,81.48
2018-12-16T05:54:18.815Z,81.24
2018-12-16T05:56:48.956Z,81.15
2018-12-16T05:59:19.608Z,80.68
2018-12-16T06:01:50.174Z,81.25
2018-12-16T06:04:20.279Z,81.26
2018-12-16T06:06:50.809Z,80.63
2018-12-16T06:09:21.154Z,80.68
2018-12-16T06:11:51.497Z,80.43
2018-12-16T06:14:21.616Z,79.77
2018-12-16T06:16:52.367Z,80.09
2018-12-16T06:19:22.537Z,79.68
2018-12-16T06:21:52.719Z,80.00
2018-12-16T06:24:23.300Z,80.12
2018-12-16T06:26:54.640Z,80.09
2018-12-16T06:29:24.705Z,79.86
2018-12-16T06:31:55.384Z,79.66
2018-12-16T06:34:26.231Z,79.60
2018-12-16T06:36:57.039Z,79.42
2018-12-16T06:39:27.278Z,79.56
2018-12-16T06:41:58.039Z,79.38
2018-12-16T06:44:28.737Z,79.30
2018-12-16T06:46:58.899Z,80.02
2018-12-16T06:49:28.973Z,79.03
2018-12-16T06:51:59.161Z,79.15
2018-12-16T06:54:30.901Z,79.19
2018-12-16T06:57:01.135Z,79.43
2018-12-16T06:59:31.266Z,79.32
2018-12-16T07:02:02.136Z,79.59
2018-12-16T07:04:32.099Z,78.56
2018-12-16T07:07:02.744Z,78.43
2018-12-16T07:09:33.674Z,78.88
2018-12-16T07:12:04.037Z,78.69
2018-12-16T07:14:34.866Z,78.88
2018-12-16T07:17:05.317Z,79.26
2018-12-16T07:19:35.607Z,78.40
2018-12-16T07:22:05.849Z,78.03
2018-12-16T07:24:36.738Z,78.93
2018-12-16T07:27:06.988Z,78.24
2018-12-16T07:29:37.227Z,77.92
2018-12-16T07:32:07.265Z,78.40
2018-12-16T07:34:37.902Z,78.03
2018-12-16T07:37:08.129Z,77.93
2018-12-16T07:39:38.252Z,78.14
2018-12-16T07:42:09.154Z,77.69
2018-12-16T07:44:39.524Z,77.71
2018-12-16T07:47:09.635Z,77.65
2018-12-16T07:49:40.175Z,77.35
2018-12-16T07:52:10.909Z,76.87
2018-12-16T07:54:42.556Z,76.99
2018-12-16T07:57:12.601Z,77.30
2018-12-16T07:59:42.696Z,77.14
2018-12-16T08:02:12.933Z,77.50
2018-12-16T08:04:43.240Z,77.39
2018-12-16T08:07:13.875Z,77.52
2018-12-16T08:09:44.662Z,77.74
2018-12-16T08:12:14.580Z,77.20
2018-12-16T08:14:44.958Z,77.54
2018-12-16T08:17:15.168Z,76.53
2018-12-16T08:19:45.397Z,76.78
2018-12-16T08:22:15.481Z,76.88
2018-12-16T08:24:46.190Z,76.55
2018-12-16T08:27:16.228Z,76.60
2018-12-16T08:29:46.436Z,76.94
2018-12-16T08:32:16.580Z,77.14
2018-12-16T08:34:46.712Z,76.36
2018-12-16T08:37:17.524Z,76.55
2018-12-16T08:39:48.798Z,77.34
2018-12-16T08:42:18.739Z,76.46
2018-12-16T08:44:50.169Z,76.68
2018-12-16T08:47:20.716Z,76.53
2018-12-16T08:49:50.925Z,76.14
2018-12-16T08:52:22.584Z,75.86
2018-12-16T08:54:53.233Z,75.21
2018-12-16T08:57:24.062Z,74.68
2018-12-16T08:59:54.797Z,74.82
2018-12-16T09:02:34.747Z,75.93
2018-12-16T09:05:05.174Z,75.62
2018-12-16T09:07:37.519Z,75.95
2018-12-16T09:10:09.022Z,76.00
2018-12-16T09:12:39.208Z,76.58
2018-12-16T09:15:10.058Z,75.42
2018-12-16T09:17:40.173Z,75.99
2018-12-16T09:20:10.501Z,75.98
2018-12-16T09:22:40.509Z,75.80
2018-12-16T09:25:10.763Z,75.69
2018-12-16T09:27:42.413Z,75.56
2018-12-16T09:30:14.042Z,75.55
2018-12-16T09:32:44.107Z,75.39
2018-12-16T09:35:14.270Z,75.57
2018-12-16T09:37:44.472Z,75.39
2018-12-16T09:40:14.669Z,75.38
2018-12-16T09:42:45.417Z,75.45
2018-12-16T09:45:15.600Z,75.35
2018-12-16T09:47:45.978Z,75.26
2018-12-16T09:50:15.999Z,75.07
2018-12-16T09:52:46.055Z,74.82
2018-12-16T09:55:16.221Z,75.16
2018-12-16T09:57:46.488Z,75.58
2018-12-16T10:00:16.547Z,75.79
2018-12-16T10:02:46.702Z,76.20
2018-12-16T10:05:16.810Z,76.50
2018-12-16T10:07:47.676Z,76.52
2018-12-16T10:10:17.687Z,75.98
2018-12-16T10:12:49.105Z,76.04
2018-12-16T10:15:19.793Z,75.73
2018-12-16T10:17:50.510Z,75.53
2018-12-16T10:20:21.678Z,75.13
2018-12-16T10:22:52.584Z,75.90
2018-12-16T10:25:22.981Z,75.99
2018-12-16T10:27:54.680Z,75.22
2018-12-16T10:30:25.338Z,75.45
2018-12-16T10:32:59.080Z,74.97
2018-12-16T10:35:30.604Z,75.32
2018-12-16T10:38:00.716Z,74.89
2018-12-16T10:40:31.449Z,75.05
2018-12-16T10:43:01.337Z,75.18
2018-12-16T10:45:31.275Z,75.70
2018-12-16T10:48:01.194Z,75.97
2018-12-16T10:50:31.094Z,75.24
2018-12-16T10:53:01.319Z,75.46
2018-12-16T10:55:31.488Z,76.27
2018-12-16T10:58:01.589Z,75.69
2018-12-16T11:00:36.839Z,75.19
2018-12-16T11:03:07.030Z,75.00
2018-12-16T11:05:38.219Z,74.62
2018-12-16T11:08:08.499Z,74.59
2018-12-16T11:10:38.623Z,73.55
2018-12-16T11:13:08.909Z,73.85
2018-12-16T11:15:39.003Z,73.44
2018-12-16T11:18:09.123Z,73.43
2018-12-16T11:20:40.017Z,72.99
2018-12-16T11:23:15.855Z,73.38
2018-12-16T11:25:51.041Z,73.47
2018-12-16T11:28:21.297Z,73.12
2018-12-16T11:30:51.418Z,73.06
2018-12-16T11:33:21.668Z,72.73
2018-12-16T11:35:51.606Z,73.34
2018-12-16T11:38:21.552Z,73.22
2018-12-16T11:40:51.455Z,72.31
2018-12-16T11:43:21.387Z,72.48
2018-12-16T11:45:51.447Z,72.38
2018-12-16T11:48:21.490Z,71.48
2018-12-16T11:50:52.747Z,72.09
2018-12-16T11:53:23.066Z,72.04
2018-12-16T11:55:53.395Z,71.32
2018-12-16T11:58:24.533Z,71.48
2018-12-16T12:00:54.588Z,71.40
2018-12-16T12:03:24.710Z,71.07
2018-12-16T12:05:54.735Z,71.55
2018-12-16T12:08:25.091Z,70.32
2018-12-16T12:10:55.176Z,70.70
2018-12-16T12:13:25.834Z,71.15
2018-12-16T12:15:55.906Z,70.99
2018-12-16T12:18:26.652Z,70.71
2018-12-16T12:20:56.782Z,70.81
2018-12-16T12:23:27.752Z,71.41
2018-12-16T12:25:58.478Z,70.68
2018-12-16T12:28:29.587Z,71.14
2018-12-16T12:31:00.136Z,70.82
2018-12-16T12:33:30.921Z,70.94
2018-12-16T12:36:02.133Z,70.26
2018-12-16T12:38:32.712Z,70.89
2018-12-16T12:41:02.883Z,70.87
2018-12-16T12:43:33.703Z,71.08
2018-12-16T12:46:04.679Z,70.61
2018-12-16T12:48:34.874Z,70.45
2018-12-16T12:51:05.002Z,69.81
2018-12-16T12:53:36.371Z,69.33
2018-12-16T12:56:06.558Z,67.71
2018-12-16T12:58:38.836Z,67.07
2018-12-16T13:01:09.485Z,68.19
2018-12-16T13:03:39.594Z,68.46
2018-12-16T13:06:10.574Z,68.00
2018-12-16T13:08:40.876Z,67.84
2018-12-16T13:11:11.045Z,66.85
2018-12-16T13:13:41.818Z,65.92
2018-12-16T13:16:12.004Z,66.11
2018-12-16T13:18:43.532Z,66.42
2018-12-16T13:21:13.699Z,65.88
2018-12-16T13:23:43.857Z,65.47
2018-12-16T13:26:13.934Z,64.94
2018-12-16T13:28:44.815Z,65.43
2018-12-16T13:31:14.988Z,65.34
2018-12-16T13:33:45.115Z,65.46
2018-12-16T13:36:15.128Z,64.91
2018-12-16T13:38:45.503Z,64.95
2018-12-16T13:41:15.644Z,65.77
2018-12-16T13:43:46.460Z,66.22
2018-12-16T13:46:17.957Z,66.43
2018-12-16T13:48:48.697Z,67.03
2018-12-16T13:51:20.562Z,67.14
2018-12-16T13:53:51.314Z,67.17
2018-12-16T13:56:22.345Z,67.79
2018-12-16T13:58:52.532Z,68.14
2018-12-16T14:01:22.460Z,68.07
2018-12-16T14:03:52.587Z,68.52
2018-12-16T14:06:22.758Z,68.85
2018-12-16T14:08:53.775Z,69.34
2018-12-16T14:11:24.011Z,69.43
2018-12-16T14:13:54.042Z,69.60
2018-12-16T14:16:24.146Z,69.70
2018-12-16T14:18:54.168Z,70.25
2018-12-16T14:21:24.211Z,70.86
2018-12-16T14:23:54.289Z,70.52
2018-12-16T14:26:25.683Z,71.03
2018-12-16T14:28:55.708Z,71.33
2018-12-16T14:31:27.627Z,71.11
2018-12-16T14:33:58.391Z,70.85
2018-12-16T14:36:28.625Z,71.40
2018-12-16T14:38:58.793Z,72.31
2018-12-16T14:41:28.800Z,72.16
2018-12-16T14:43:59.108Z,73.36
2018-12-16T14:46:30.261Z,73.06
2018-12-16T14:49:00.360Z,72.63
2018-12-16T14:51:31.222Z,72.89
2018-12-16T14:54:01.330Z,72.68
2018-12-16T14:56:32.143Z,72.57
2018-12-16T14:59:03.359Z,72.92
2018-12-16T15:01:33.875Z,72.35
2018-12-16T15:04:04.007Z,72.17
2018-12-16T15:06:34.168Z,72.29
2018-12-16T15:09:08.224Z,73.01
2018-12-16T15:11:38.332Z,72.37
2018-12-16T15:14:08.796Z,72.86
2018-12-16T15:16:38.975Z,72.75
2018-12-16T15:19:09.903Z,72.84
2018-12-16T15:21:40.703Z,72.58
2018-12-16T15:24:10.761Z,72.71
2018-12-16T15:26:40.855Z,72.64
2018-12-16T15:29:10.891Z,72.88
2018-12-16T15:31:40.902Z,72.37
2018-12-16T15:34:11.762Z,72.53
2018-12-16T15:36:42.533Z,72.75
2018-12-16T15:39:12.735Z,73.24
2018-12-16T15:41:42.925Z,73.06
2018-12-16T15:44:13.352Z,72.89
2018-12-16T15:46:43.543Z,72.68
2018-12-16T15:49:14.258Z,72.90
2018-12-16T15:51:44.313Z,72.83
2018-12-16T15:54:14.953Z,73.08
2018-12-16T15:56:45.795Z,72.60
2018-12-16T15:59:15.859Z,73.02
2018-12-16T16:01:45.840Z,72.70
2018-12-16T16:04:16.677Z,72.78
2018-12-16T16:06:47.876Z,72.83
2018-12-16T16:09:18.256Z,73.42
2018-12-16T16:11:48.802Z,74.66
2018-12-16T16:14:19.115Z,74.38
2018-12-16T16:16:49.142Z,75.38
2018-12-16T16:19:19.240Z,76.01
2018-12-16T16:21:49.333Z,75.90
2018-12-16T16:24:19.649Z,75.93
2018-12-16T16:26:49.732Z,77.23
2018-12-16T16:29:19.965Z,77.17
2018-12-16T16:31:50.020Z,77.91
2018-12-16T16:34:20.232Z,78.49
2018-12-16T16:36:50.421Z,78.45
2018-12-16T16:39:21.131Z,78.95
2018-12-16T16:41:51.948Z,80.13
2018-12-16T16:44:22.036Z,79.77
2018-12-16T16:46:52.083Z,80.14
2018-12-16T16:49:22.179Z,80.38
2018-12-16T16:51:52.391Z,80.75
2018-12-16T16:54:23.142Z,82.00
2018-12-16T16:56:53.229Z,81.64
2018-12-16T16:59:24.105Z,82.37
2018-12-16T17:01:54.231Z,82.77
2018-12-16T17:04:24.358Z,83.02
2018-12-16T17:06:54.515Z,83.41
2018-12-16T17:09:25.301Z,83.10
2018-12-16T17:11:55.424Z,83.79
2018-12-16T17:14:25.607Z,83.67
2018-12-16T17:16:55.730Z,83.16
2018-12-16T17:19:26.619Z,83.76
2018-12-16T17:21:58.377Z,83.38
2018-12-16T17:24:29.129Z,83.35
2018-12-16T17:26:59.173Z,84.03
2018-12-16T17:29:29.345Z,83.56
2018-12-16T17:32:00.303Z,83.93
2018-12-16T17:34:30.496Z,84.04
2018-12-16T17:37:01.353Z,83.52
2018-12-16T17:39:32.207Z,83.83
2018-12-16T17:42:02.355Z,83.62
2018-12-16T17:44:32.616Z,83.19
2018-12-16T17:47:02.641Z,83.57
2018-12-16T17:49:33.514Z,84.44
2018-12-16T17:52:03.598Z,84.23
2018-12-16T17:54:33.854Z,84.74
2018-12-16T17:57:03.983Z,83.57
2018-12-16T17:59:34.706Z,84.06
2018-12-16T18:02:05.490Z,83.83
2018-12-16T18:04:36.094Z,84.05
2018-12-16T18:07:07.206Z,84.31
2018-12-16T18:09:37.993Z,84.22
2018-12-16T18:12:08.524Z,83.41
2018-12-16T18:14:38.613Z,84.22
2018-12-16T18:17:09.967Z,83.80
2018-12-16T18:19:40.324Z,84.08
2018-12-16T18:22:14.123Z,84.54
2018-12-16T18:24:44.027Z,84.25
2018-12-16T18:27:14.217Z,84.70
2018-12-16T18:29:44.287Z,84.40
2018-12-16T18:32:14.507Z,84.10
2018-12-16T18:34:45.261Z,84.22
2018-12-16T18:37:16.836Z,83.51
2018-12-16T18:39:47.608Z,83.85
2018-12-16T18:42:17.776Z,83.97
2018-12-16T18:44:47.989Z,84.08
2018-12-16T18:47:18.176Z,85.08
2018-12-16T18:49:48.219Z,84.46
2018-12-16T18:52:19.326Z,84.08
2018-12-16T18:54:50.022Z,84.43
2018-12-16T18:57:20.837Z,84.54
2018-12-16T18:59:51.983Z,84.70
2018-12-16T19:02:22.300Z,84.07
2018-12-16T19:04:52.444Z,84.60
2018-12-16T19:07:22.703Z,83.60
2018-12-16T19:09:53.334Z,83.35
2018-12-16T19:12:23.526Z,83.15
2018-12-16T19:14:54.270Z,82.76
2018-12-16T19:17:24.579Z,83.49
2018-12-16T19:19:55.000Z,83.19
2018-12-16T19:22:25.657Z,83.17
2018-12-16T19:24:55.836Z,83.46
2018-12-16T19:27:26.823Z,83.23
2018-12-16T19:29:57.167Z,83.31
2018-12-16T19:32:27.423Z,83.72
2018-12-16T19:34:57.782Z,82.85
2018-12-16T19:37:29.427Z,83.01
2018-12-16T19:40:00.568Z,82.71
2018-12-16T19:42:31.697Z,82.60
2018-12-16T19:45:02.550Z,83.20
2018-12-16T19:47:35.014Z,82.91
2018-12-16T19:50:07.658Z,83.52
2018-12-16T19:52:38.902Z,83.42
2018-12-16T19:55:10.325Z,82.56
2018-12-16T19:57:42.736Z,83.14
2018-12-16T20:00:15.210Z,83.12
2018-12-16T20:02:46.937Z,82.69
2018-12-16T20:05:23.631Z,82.37
2018-12-16T20:07:55.398Z,82.24
2018-12-16T20:10:27.600Z,82.37
2018-12-16T20:13:00.028Z,82.22
2018-12-16T20:15:31.682Z,81.92
2018-12-16T20:18:03.028Z,82.57
2018-12-16T20:20:34.019Z,82.96
2018-12-16T20:23:05.927Z,82.27
2018-12-16T20:25:37.558Z,82.44
2018-12-16T20:28:09.215Z,82.55
2018-12-16T20:30:40.141Z,83.15
2018-12-16T20:33:11.328Z,83.19
2018-12-16T20:35:42.493Z,82.79
2018-12-16T20:38:12.947Z,83.11
2018-12-16T20:40:44.581Z,82.71
2018-12-16T20:43:14.721Z,82.76
2018-12-16T20:45:44.916Z,82.78
2018-12-16T20:48:15.975Z,82.42
2018-12-16T20:50:46.895Z,82.65
2018-12-16T20:53:17.754Z,82.66
2018-12-16T20:55:47.871Z,82.38
2018-12-16T20:58:18.006Z,82.31
2018-12-16T21:00:49.455Z,82.91
2018-12-16T21:03:19.563Z,81.50
2018-12-16T21:05:49.784Z,82.18
2018-12-16T21:08:19.859Z,82.84
2018-12-16T21:10:50.169Z,82.93
2018-12-16T21:13:25.396Z,82.99
2018-12-16T21:16:00.659Z,82.96
2018-12-16T21:18:31.624Z,82.65
2018-12-16T21:21:02.895Z,82.19
2018-12-16T21:23:32.981Z,82.18
2018-12-16T21:26:03.880Z,81.97
2018-12-16T21:28:34.074Z,81.31
2018-12-16T21:31:04.063Z,81.40
2018-12-16T21:33:33.956Z,81.77
2018-12-16T21:36:03.917Z,81.89
2018-12-16T21:38:34.590Z,81.64
2018-12-16T21:41:04.639Z,81.67
2018-12-16T21:43:34.936Z,81.57
2018-12-16T21:46:05.580Z,81.86
2018-12-16T21:48:35.655Z,81.68
2018-12-16T21:51:05.868Z,82.56
2018-12-16T21:53:36.671Z,82.17
2018-12-16T21:56:06.714Z,81.78
2018-12-16T21:58:36.752Z,82.02
2018-12-16T22:01:07.019Z,82.51
2018-12-16T22:03:38.086Z,82.41
2018-12-16T22:06:09.037Z,82.87
2018-12-16T22:08:38.970Z,82.17
2018-12-16T22:11:09.087Z,83.01
2018-12-16T22:13:40.290Z,83.48
2018-12-16T22:16:10.572Z,83.45
2018-12-16T22:18:41.714Z,83.64
2018-12-16T22:21:11.902Z,83.33
2018-12-16T22:23:42.131Z,83.30
2018-12-16T22:26:12.802Z,83.61
2018-12-16T22:28:42.826Z,83.96
2018-12-16T22:31:13.796Z,83.74
2018-12-16T22:33:43.985Z,83.49
2018-12-16T22:36:14.047Z,83.05
2018-12-16T22:38:44.773Z,83.57
2018-12-16T22:41:15.362Z,83.67
2018-12-16T22:43:45.454Z,83.28
2018-12-16T22:46:16.795Z,83.29
2018-12-16T22:48:47.059Z,83.35
2018-12-16T22:51:18.310Z,83.11
2018-12-16T22:53:50.195Z,83.06
2018-12-16T22:56:20.131Z,83.40
2018-12-16T22:58:54.355Z,83.47
2018-12-16T23:01:23.184Z,83.71
2018-12-16T23:03:53.906Z,84.30
2018-12-16T23:06:25.222Z,83.94
2018-12-16T23:08:55.367Z,83.45
2018-12-16T23:11:26.637Z,83.75
2018-12-16T23:13:57.514Z,83.52
2018-12-16T23:16:29.069Z,83.12
2018-12-16T23:18:59.221Z,82.98
2018-12-16T23:21:29.402Z,83.72
2018-12-16T23:23:59.486Z,83.37
2018-12-16T23:26:30.409Z,84.10
2018-12-16T23:29:00.526Z,83.72
2018-12-16T23:31:32.390Z,83.61
2018-12-16T23:34:03.277Z,83.29
2018-12-16T23:36:34.318Z,83.97
2018-12-16T23:39:05.196Z,83.44
2018-12-16T23:41:35.417Z,83.07
2018-12-16T23:44:06.159Z,82.53
2018-12-16T23:46:36.985Z,82.71
2018-12-16T23:49:07.163Z,82.63
2018-12-16T23:51:37.478Z,82.82
2018-12-16T23:54:08.712Z,83.46
2018-12-16T23:56:39.429Z,83.27
2018-12-16T23:59:10.899Z,83.65
